WJA2199 TNCA-CYYZ
Flight info
| Callsign | WJA2199 |
|---|---|
| Flight time | N/A |
| Altitude | 32000 |
| Route | SCAPA1F SCAPA L455 VACHI/N0475F340 DCT FIPEK Y292 MNDEZ L454 LUCTI/M080F340 L454 JNFOX/M080F350 DCT OKONU/N0465F350 Y484 WEBBB/N0468F360 B24 SIE DCT MXE DCT ELZ DCT WOZEE LINNG3 |
| Aircraft | B738/M-SDE2E3FGHIRWXY/LB1 |
Departure
| Time | 2026-04-29 00:09 |
|---|---|
| Airport | Queen Beatrix International Airport (TNCA) |
Arrival
| Time | N/A |
|---|---|
| Airport | Toronto Pearson International Airport (CYYZ) |
| Time | Latitude | Longitude | Altitude | Speed | Heading |
|---|---|---|---|---|---|
| 2026-04-28 23:58 | 12.50282 | -70.00823 | 19 ft | 0 kts | 14° |
| 2026-04-29 00:02 | 12.50273 | -70.00825 | 19 ft | 1 kts | 12° |
| 2026-04-29 00:02 | 12.50258 | -70.00829 | 19 ft | 1 kts | 8° |
| 2026-04-29 00:02 | 12.50242 | -70.00830 | 19 ft | 1 kts | 1° |
| 2026-04-29 00:03 | 12.50226 | -70.00830 | 19 ft | 1 kts | 347° |
| 2026-04-29 00:03 | 12.50212 | -70.00825 | 19 ft | 1 kts | 319° |
| 2026-04-29 00:03 | 12.50204 | -70.00814 | 19 ft | 1 kts | 284° |
| 2026-04-29 00:03 | 12.50202 | -70.00809 | 19 ft | 0 kts | 284° |
| 2026-04-29 00:05 | 12.50210 | -70.00841 | 19 ft | 11 kts | 284° |
| 2026-04-29 00:06 | 12.50242 | -70.00972 | 19 ft | 26 kts | 283° |
| 2026-04-29 00:06 | 12.50239 | -70.01117 | 19 ft | 19 kts | 246° |
| 2026-04-29 00:06 | 12.50263 | -70.01292 | 19 ft | 29 kts | 283° |
| 2026-04-29 00:06 | 12.50310 | -70.01487 | 19 ft | 27 kts | 283° |
| 2026-04-29 00:07 | 12.50351 | -70.01664 | 19 ft | 24 kts | 283° |
| 2026-04-29 00:07 | 12.50390 | -70.01825 | 19 ft | 23 kts | 284° |
| 2026-04-29 00:07 | 12.50426 | -70.01979 | 19 ft | 22 kts | 283° |
| 2026-04-29 00:07 | 12.50466 | -70.02151 | 19 ft | 31 kts | 284° |
| 2026-04-29 00:08 | 12.50526 | -70.02392 | 19 ft | 34 kts | 284° |
| 2026-04-29 00:08 | 12.50574 | -70.02595 | 19 ft | 28 kts | 281° |
| 2026-04-29 00:08 | 12.50494 | -70.02747 | 19 ft | 23 kts | 199° |
| 2026-04-29 00:08 | 12.50402 | -70.02635 | 19 ft | 37 kts | 104° |
| 2026-04-29 00:09 | 12.50286 | -70.02140 | 19 ft | 104 kts | 102° |
| 2026-04-29 00:09 | 12.50059 | -70.01223 | 72 ft | 156 kts | 102° |
| 2026-04-29 00:09 | 12.49744 | -70.00119 | 734 ft | 164 kts | 102° |
| 2026-04-29 00:09 | 12.49474 | -69.99006 | 1571 ft | 166 kts | 99° |
| 2026-04-29 00:10 | 12.49203 | -69.97788 | 2030 ft | 186 kts | 99° |
| 2026-04-29 00:10 | 12.48899 | -69.96410 | 2431 ft | 208 kts | 101° |
| 2026-04-29 00:10 | 12.48579 | -69.94905 | 2730 ft | 230 kts | 98° |
| 2026-04-29 00:10 | 12.48706 | -69.93231 | 3072 ft | 244 kts | 67° |
| 2026-04-29 00:11 | 12.49773 | -69.91955 | 3792 ft | 245 kts | 33° |
| 2026-04-29 00:11 | 12.51375 | -69.91256 | 4493 ft | 253 kts | 17° |
| 2026-04-29 00:11 | 12.54990 | -69.90386 | 5738 ft | 275 kts | 11° |
| 2026-04-29 00:12 | 12.56876 | -69.89975 | 6523 ft | 278 kts | 12° |
| 2026-04-29 00:12 | 12.58780 | -69.89530 | 7303 ft | 282 kts | 13° |
| 2026-04-29 00:12 | 12.60051 | -69.89219 | 7814 ft | 284 kts | 13° |
| 2026-04-29 00:12 | 12.61993 | -69.88729 | 8575 ft | 288 kts | 14° |
| 2026-04-29 00:13 | 12.63943 | -69.88226 | 9321 ft | 291 kts | 14° |
| 2026-04-29 00:13 | 12.65911 | -69.87726 | 10057 ft | 294 kts | 13° |
| 2026-04-29 00:13 | 12.67928 | -69.87233 | 10732 ft | 300 kts | 13° |
| 2026-04-29 00:13 | 12.69997 | -69.86707 | 11150 ft | 315 kts | 14° |
| 2026-04-29 00:14 | 12.72189 | -69.86134 | 11410 ft | 334 kts | 14° |
| 2026-04-29 00:14 | 12.74503 | -69.85517 | 11654 ft | 352 kts | 14° |
| 2026-04-29 00:14 | 12.76925 | -69.84864 | 11918 ft | 367 kts | 14° |
| 2026-04-29 00:14 | 12.79411 | -69.84188 | 12394 ft | 375 kts | 15° |
| 2026-04-29 00:15 | 12.81941 | -69.83495 | 12988 ft | 378 kts | 15° |
| 2026-04-29 00:15 | 12.84494 | -69.82793 | 13577 ft | 382 kts | 15° |
| 2026-04-29 00:15 | 12.87079 | -69.82077 | 14154 ft | 385 kts | 15° |
| 2026-04-29 00:15 | 12.89681 | -69.81352 | 14718 ft | 388 kts | 15° |
| 2026-04-29 00:16 | 12.92296 | -69.80618 | 15266 ft | 391 kts | 15° |
| 2026-04-29 00:16 | 12.94885 | -69.79743 | 15799 ft | 395 kts | 22° |
| 2026-04-29 00:16 | 12.97339 | -69.78506 | 16314 ft | 398 kts | 30° |
| 2026-04-29 00:16 | 12.99669 | -69.76963 | 16823 ft | 401 kts | 35° |
| 2026-04-29 00:17 | 13.01925 | -69.75267 | 17318 ft | 404 kts | 37° |
| 2026-04-29 00:17 | 13.04161 | -69.73488 | 17803 ft | 407 kts | 38° |
| 2026-04-29 00:17 | 13.06394 | -69.71704 | 18272 ft | 410 kts | 38° |
| 2026-04-29 00:17 | 13.08661 | -69.69900 | 18733 ft | 413 kts | 38° |
| 2026-04-29 00:18 | 13.10938 | -69.68092 | 19178 ft | 415 kts | 38° |
| 2026-04-29 00:18 | 13.13238 | -69.66269 | 19616 ft | 418 kts | 37° |
| 2026-04-29 00:18 | 13.15547 | -69.64441 | 20040 ft | 421 kts | 37° |
| 2026-04-29 00:18 | 13.17877 | -69.62598 | 20456 ft | 424 kts | 37° |
| 2026-04-29 00:19 | 13.20197 | -69.60764 | 20856 ft | 426 kts | 37° |
| 2026-04-29 00:19 | 13.22555 | -69.58899 | 21248 ft | 429 kts | 37° |
| 2026-04-29 00:19 | 13.24960 | -69.57003 | 21644 ft | 431 kts | 37° |
| 2026-04-29 00:19 | 13.27346 | -69.55124 | 22015 ft | 434 kts | 37° |
| 2026-04-29 00:20 | 13.29688 | -69.53278 | 22369 ft | 436 kts | 37° |
| 2026-04-29 00:20 | 13.32130 | -69.51351 | 22726 ft | 438 kts | 37° |
| 2026-04-29 00:20 | 13.34558 | -69.49434 | 23068 ft | 441 kts | 37° |
| 2026-04-29 00:20 | 13.36992 | -69.47512 | 23361 ft | 442 kts | 37° |
| 2026-04-29 00:21 | 13.39439 | -69.45579 | 23605 ft | 444 kts | 37° |
| 2026-04-29 00:21 | 13.41903 | -69.43632 | 23855 ft | 446 kts | 37° |
| 2026-04-29 00:21 | 13.44370 | -69.41680 | 24099 ft | 448 kts | 37° |
| 2026-04-29 00:21 | 13.46845 | -69.39723 | 24339 ft | 449 kts | 37° |
| 2026-04-29 00:22 | 13.49289 | -69.37789 | 24568 ft | 451 kts | 37° |
| 2026-04-29 00:22 | 13.51786 | -69.35813 | 24794 ft | 453 kts | 37° |
| 2026-04-29 00:22 | 13.54284 | -69.33836 | 25013 ft | 454 kts | 37° |
| 2026-04-29 00:22 | 13.56785 | -69.31855 | 25228 ft | 456 kts | 37° |
| 2026-04-29 00:23 | 13.59300 | -69.29863 | 25438 ft | 457 kts | 37° |
| 2026-04-29 00:23 | 13.61834 | -69.27855 | 25642 ft | 458 kts | 37° |
| 2026-04-29 00:23 | 13.64364 | -69.25850 | 25840 ft | 460 kts | 37° |
| 2026-04-29 00:23 | 13.66902 | -69.23839 | 26033 ft | 461 kts | 37° |
| 2026-04-29 00:24 | 13.69442 | -69.21824 | 26223 ft | 463 kts | 37° |
| 2026-04-29 00:24 | 13.72008 | -69.19789 | 26409 ft | 464 kts | 37° |
| 2026-04-29 00:24 | 13.74573 | -69.17754 | 26589 ft | 465 kts | 37° |
| 2026-04-29 00:24 | 13.77105 | -69.15744 | 26762 ft | 466 kts | 37° |
| 2026-04-29 00:25 | 13.79675 | -69.13705 | 26932 ft | 468 kts | 37° |
| 2026-04-29 00:25 | 13.82261 | -69.11651 | 27099 ft | 469 kts | 37° |
| 2026-04-29 00:25 | 13.84857 | -69.09589 | 27263 ft | 470 kts | 37° |
| 2026-04-29 00:25 | 13.87447 | -69.07531 | 27422 ft | 471 kts | 37° |
| 2026-04-29 00:26 | 13.90051 | -69.05461 | 27577 ft | 472 kts | 37° |
| 2026-04-29 00:26 | 13.92659 | -69.03388 | 27728 ft | 473 kts | 37° |
| 2026-04-29 00:26 | 13.95241 | -69.01335 | 27874 ft | 475 kts | 38° |
| 2026-04-29 00:26 | 13.97855 | -68.99255 | 28075 ft | 474 kts | 38° |
| 2026-04-29 00:27 | 14.00461 | -68.97182 | 28305 ft | 473 kts | 38° |
| 2026-04-29 00:27 | 14.03059 | -68.95114 | 28516 ft | 473 kts | 38° |
| 2026-04-29 00:27 | 14.05673 | -68.93033 | 28737 ft | 472 kts | 38° |
| 2026-04-29 00:27 | 14.08292 | -68.90947 | 28988 ft | 471 kts | 38° |
| 2026-04-29 00:28 | 14.10849 | -68.88910 | 29206 ft | 471 kts | 38° |
| 2026-04-29 00:28 | 14.13447 | -68.86839 | 29418 ft | 471 kts | 38° |
| 2026-04-29 00:28 | 14.16031 | -68.84780 | 29667 ft | 470 kts | 38° |
| 2026-04-29 00:28 | 14.18619 | -68.82716 | 29965 ft | 468 kts | 38° |
| 2026-04-29 00:29 | 14.21186 | -68.80669 | 30187 ft | 468 kts | 38° |
| 2026-04-29 00:29 | 14.23764 | -68.78612 | 30423 ft | 467 kts | 38° |
| 2026-04-29 00:29 | 14.26336 | -68.76559 | 30653 ft | 467 kts | 38° |
| 2026-04-29 00:29 | 14.28918 | -68.74498 | 30889 ft | 467 kts | 38° |
| 2026-04-29 00:30 | 14.31486 | -68.72448 | 31119 ft | 466 kts | 38° |
| 2026-04-29 00:30 | 14.34046 | -68.70403 | 31347 ft | 466 kts | 38° |
| 2026-04-29 00:30 | 14.36575 | -68.68382 | 31570 ft | 465 kts | 38° |
| 2026-04-29 00:30 | 14.39136 | -68.66335 | 31795 ft | 465 kts | 38° |
| 2026-04-29 00:31 | 14.41695 | -68.64289 | 31921 ft | 467 kts | 38° |
| 2026-04-29 00:31 | 14.46876 | -68.60145 | 31936 ft | 474 kts | 38° |
| 2026-04-29 00:32 | 14.52128 | -68.55942 | 31935 ft | 481 kts | 38° |
| 2026-04-29 00:32 | 14.57415 | -68.51708 | 31935 ft | 485 kts | 38° |
| 2026-04-29 00:33 | 14.62744 | -68.47438 | 31935 ft | 485 kts | 38° |
| 2026-04-29 00:33 | 14.68072 | -68.43165 | 31935 ft | 485 kts | 38° |
| 2026-04-29 00:34 | 14.73410 | -68.38882 | 31935 ft | 485 kts | 38° |
| 2026-04-29 00:34 | 14.78700 | -68.34635 | 31935 ft | 485 kts | 38° |
| 2026-04-29 00:35 | 14.84035 | -68.30350 | 31935 ft | 485 kts | 38° |
| 2026-04-29 00:35 | 14.89361 | -68.26068 | 31935 ft | 485 kts | 38° |
| 2026-04-29 00:36 | 14.94658 | -68.21806 | 31935 ft | 485 kts | 38° |
| 2026-04-29 00:36 | 14.99982 | -68.17522 | 31935 ft | 485 kts | 38° |
| 2026-04-29 00:37 | 15.05318 | -68.13223 | 31935 ft | 485 kts | 38° |
| 2026-04-29 00:37 | 15.10644 | -68.08931 | 31938 ft | 484 kts | 38° |
| 2026-04-29 00:38 | 15.15933 | -68.04665 | 31957 ft | 484 kts | 38° |
| 2026-04-29 00:38 | 15.21262 | -68.00365 | 31967 ft | 484 kts | 38° |
| 2026-04-29 00:39 | 15.26578 | -67.96072 | 31970 ft | 485 kts | 38° |
| 2026-04-29 00:39 | 15.31909 | -67.91763 | 31976 ft | 487 kts | 38° |
| 2026-04-29 00:40 | 15.37240 | -67.87452 | 31986 ft | 489 kts | 38° |
| 2026-04-29 00:40 | 15.42606 | -67.83110 | 31995 ft | 489 kts | 38° |
| 2026-04-29 00:41 | 15.47978 | -67.78760 | 32006 ft | 490 kts | 38° |
| 2026-04-29 00:41 | 15.53351 | -67.74407 | 32020 ft | 490 kts | 38° |
| 2026-04-29 00:42 | 15.58737 | -67.70043 | 32018 ft | 490 kts | 38° |
| 2026-04-29 00:42 | 15.64117 | -67.65684 | 32019 ft | 490 kts | 38° |
| 2026-04-29 00:43 | 15.69451 | -67.61350 | 32023 ft | 490 kts | 38° |
| 2026-04-29 00:43 | 15.74834 | -67.56972 | 32023 ft | 490 kts | 38° |
| 2026-04-29 00:44 | 15.80248 | -67.52668 | 32018 ft | 490 kts | 33° |
| 2026-04-29 00:44 | 15.83264 | -67.51010 | 32022 ft | 490 kts | 22° |
| 2026-04-29 00:44 | 15.86507 | -67.49935 | 32024 ft | 490 kts | 12° |
| 2026-04-29 00:45 | 15.93234 | -67.49168 | 32024 ft | 490 kts | 2° |
| 2026-04-29 00:45 | 16.00050 | -67.48829 | 32023 ft | 490 kts | 3° |
| 2026-04-29 00:46 | 16.06862 | -67.48373 | 32023 ft | 490 kts | 4° |
| 2026-04-29 00:46 | 16.13670 | -67.47902 | 32023 ft | 490 kts | 4° |
| 2026-04-29 00:47 | 16.20423 | -67.47433 | 32023 ft | 490 kts | 4° |
| 2026-04-29 00:47 | 16.27237 | -67.46977 | 32023 ft | 490 kts | 4° |
| 2026-04-29 00:48 | 16.34051 | -67.46522 | 32023 ft | 490 kts | 4° |
| 2026-04-29 00:48 | 16.40830 | -67.46068 | 32023 ft | 490 kts | 4° |
| 2026-04-29 00:49 | 16.47636 | -67.45613 | 32023 ft | 490 kts | 4° |
| 2026-04-29 00:49 | 16.54448 | -67.45156 | 32023 ft | 490 kts | 4° |
| 2026-04-29 00:50 | 16.61251 | -67.44701 | 32023 ft | 490 kts | 4° |
| 2026-04-29 00:50 | 16.68023 | -67.44248 | 32023 ft | 490 kts | 4° |
| 2026-04-29 00:51 | 16.74836 | -67.43791 | 32023 ft | 489 kts | 4° |
| 2026-04-29 00:51 | 16.81627 | -67.43335 | 32023 ft | 489 kts | 4° |
| 2026-04-29 00:52 | 16.88389 | -67.42881 | 32023 ft | 489 kts | 4° |
| 2026-04-29 00:52 | 16.95167 | -67.42426 | 32023 ft | 489 kts | 4° |
| 2026-04-29 00:53 | 17.01961 | -67.41968 | 32023 ft | 489 kts | 4° |
| 2026-04-29 00:53 | 17.08769 | -67.41510 | 32023 ft | 489 kts | 4° |
| 2026-04-29 00:54 | 17.15559 | -67.41053 | 32023 ft | 489 kts | 4° |
| 2026-04-29 00:54 | 17.22334 | -67.40596 | 32025 ft | 489 kts | 4° |
| 2026-04-29 00:55 | 17.29090 | -67.40140 | 32039 ft | 489 kts | 4° |
| 2026-04-29 00:55 | 17.35891 | -67.39681 | 32048 ft | 489 kts | 4° |
| 2026-04-29 00:56 | 17.42676 | -67.39222 | 32051 ft | 489 kts | 4° |
| 2026-04-29 00:56 | 17.49415 | -67.38767 | 32053 ft | 489 kts | 4° |
| 2026-04-29 00:57 | 17.56223 | -67.38306 | 32053 ft | 489 kts | 4° |
| 2026-04-29 00:57 | 17.63028 | -67.37845 | 32053 ft | 489 kts | 4° |
| 2026-04-29 00:58 | 17.68657 | -67.37463 | 32053 ft | 489 kts | 4° |
| 2026-04-29 00:58 | 17.76573 | -67.36927 | 32053 ft | 489 kts | 4° |
| 2026-04-29 00:59 | 17.83375 | -67.36465 | 32053 ft | 490 kts | 4° |
| 2026-04-29 00:59 | 17.89026 | -67.36081 | 32053 ft | 489 kts | 4° |
| 2026-04-29 01:00 | 17.95854 | -67.35617 | 32053 ft | 490 kts | 4° |
| 2026-04-29 01:00 | 18.02628 | -67.35156 | 32053 ft | 490 kts | 4° |
| 2026-04-29 01:01 | 18.09428 | -67.34693 | 32053 ft | 490 kts | 4° |
| 2026-04-29 01:01 | 18.16237 | -67.34229 | 32053 ft | 490 kts | 4° |
| 2026-04-29 01:02 | 18.23038 | -67.33765 | 32053 ft | 490 kts | 4° |
| 2026-04-29 01:02 | 18.29843 | -67.33302 | 32053 ft | 490 kts | 4° |
| 2026-04-29 01:03 | 18.36655 | -67.32837 | 32054 ft | 490 kts | 4° |
| 2026-04-29 01:03 | 18.43475 | -67.32370 | 32061 ft | 490 kts | 4° |
| 2026-04-29 01:04 | 18.50276 | -67.31905 | 32065 ft | 490 kts | 4° |
| 2026-04-29 01:04 | 18.57050 | -67.31638 | 32066 ft | 490 kts | 358° |
| 2026-04-29 01:05 | 18.63825 | -67.32661 | 32064 ft | 490 kts | 347° |
| 2026-04-29 01:05 | 18.70378 | -67.34527 | 32054 ft | 490 kts | 344° |
| 2026-04-29 01:06 | 18.76961 | -67.36484 | 32053 ft | 490 kts | 344° |
| 2026-04-29 01:06 | 18.83547 | -67.38422 | 32053 ft | 490 kts | 344° |
| 2026-04-29 01:07 | 18.90077 | -67.40337 | 32053 ft | 490 kts | 344° |
| 2026-04-29 01:07 | 18.96663 | -67.42260 | 32053 ft | 490 kts | 345° |
| 2026-04-29 01:08 | 19.03251 | -67.44185 | 32053 ft | 490 kts | 344° |
| 2026-04-29 01:08 | 19.09850 | -67.46116 | 32053 ft | 490 kts | 344° |
| 2026-04-29 01:09 | 19.16398 | -67.48035 | 32053 ft | 490 kts | 344° |
| 2026-04-29 01:09 | 19.22980 | -67.49965 | 32053 ft | 490 kts | 344° |
| 2026-04-29 01:10 | 19.29521 | -67.51885 | 32053 ft | 490 kts | 344° |
| 2026-04-29 01:10 | 19.36098 | -67.53817 | 32053 ft | 490 kts | 344° |
| 2026-04-29 01:11 | 19.42683 | -67.55753 | 32053 ft | 490 kts | 344° |
| 2026-04-29 01:11 | 19.49256 | -67.57687 | 32053 ft | 490 kts | 344° |
| 2026-04-29 01:12 | 19.55815 | -67.59619 | 32052 ft | 489 kts | 344° |
| 2026-04-29 01:12 | 19.62398 | -67.61559 | 32051 ft | 489 kts | 344° |
| 2026-04-29 01:13 | 19.68950 | -67.63493 | 32052 ft | 489 kts | 344° |
| 2026-04-29 01:13 | 19.75468 | -67.65414 | 32052 ft | 489 kts | 344° |
| 2026-04-29 01:14 | 19.82050 | -67.67359 | 32055 ft | 489 kts | 344° |
| 2026-04-29 01:14 | 19.88595 | -67.69299 | 32053 ft | 489 kts | 344° |
| 2026-04-29 01:15 | 19.95155 | -67.71238 | 32054 ft | 489 kts | 344° |
| 2026-04-29 01:15 | 20.01696 | -67.73177 | 32053 ft | 489 kts | 344° |
| 2026-04-29 01:16 | 20.08240 | -67.75117 | 32047 ft | 489 kts | 344° |
| 2026-04-29 01:16 | 20.14806 | -67.77070 | 32045 ft | 488 kts | 344° |
| 2026-04-29 01:17 | 20.21354 | -67.79010 | 32044 ft | 489 kts | 344° |
| 2026-04-29 01:17 | 20.27925 | -67.80965 | 32029 ft | 489 kts | 344° |
| 2026-04-29 01:18 | 20.34437 | -67.82906 | 32028 ft | 489 kts | 344° |
| 2026-04-29 01:18 | 20.44274 | -67.85835 | 32021 ft | 489 kts | 344° |
| 2026-04-29 01:19 | 20.50826 | -67.87789 | 32023 ft | 489 kts | 344° |
| 2026-04-29 01:19 | 20.57379 | -67.89741 | 32023 ft | 489 kts | 344° |
| 2026-04-29 01:20 | 20.63901 | -67.91688 | 32007 ft | 489 kts | 344° |
| 2026-04-29 01:20 | 20.70449 | -67.93648 | 31996 ft | 489 kts | 344° |
| 2026-04-29 01:21 | 20.76997 | -67.95610 | 31994 ft | 489 kts | 344° |
| 2026-04-29 01:21 | 20.83548 | -67.97573 | 31994 ft | 489 kts | 344° |
| 2026-04-29 01:22 | 20.90094 | -67.99490 | 31994 ft | 489 kts | 346° |
| 2026-04-29 01:22 | 20.96696 | -68.01280 | 31994 ft | 489 kts | 346° |
| 2026-04-29 01:23 | 21.03294 | -68.03087 | 31994 ft | 489 kts | 346° |
| 2026-04-29 01:23 | 21.09844 | -68.04890 | 31994 ft | 489 kts | 345° |
| 2026-04-29 01:24 | 21.16427 | -68.06708 | 31994 ft | 489 kts | 345° |
| 2026-04-29 01:24 | 21.23024 | -68.08526 | 31994 ft | 489 kts | 345° |
| 2026-04-29 01:25 | 21.29621 | -68.10345 | 31994 ft | 489 kts | 345° |
| 2026-04-29 01:25 | 21.36179 | -68.12157 | 31994 ft | 489 kts | 345° |
| 2026-04-29 01:26 | 21.42773 | -68.13983 | 31994 ft | 489 kts | 345° |
| 2026-04-29 01:26 | 21.49360 | -68.15809 | 31994 ft | 489 kts | 345° |
| 2026-04-29 01:27 | 21.55944 | -68.17635 | 31994 ft | 489 kts | 345° |
| 2026-04-29 01:27 | 21.62543 | -68.19468 | 31994 ft | 489 kts | 345° |
| 2026-04-29 01:28 | 21.69093 | -68.21289 | 32010 ft | 489 kts | 345° |
| 2026-04-29 01:28 | 21.75691 | -68.23125 | 32022 ft | 489 kts | 345° |
| 2026-04-29 01:29 | 21.82266 | -68.24956 | 32039 ft | 489 kts | 345° |
| 2026-04-29 01:29 | 21.88836 | -68.26787 | 32050 ft | 489 kts | 345° |
| 2026-04-29 01:30 | 21.95426 | -68.28626 | 32053 ft | 489 kts | 345° |
| 2026-04-29 01:30 | 22.02028 | -68.30470 | 32053 ft | 489 kts | 345° |
| 2026-04-29 01:31 | 22.08569 | -68.32299 | 32053 ft | 489 kts | 345° |
| 2026-04-29 01:31 | 22.15158 | -68.34143 | 32053 ft | 489 kts | 345° |
| 2026-04-29 01:32 | 22.21740 | -68.35987 | 32053 ft | 489 kts | 345° |
| 2026-04-29 01:32 | 22.28328 | -68.37834 | 32053 ft | 489 kts | 345° |
| 2026-04-29 01:33 | 22.34874 | -68.39671 | 32050 ft | 489 kts | 345° |
| 2026-04-29 01:33 | 22.41473 | -68.41525 | 32044 ft | 489 kts | 345° |
| 2026-04-29 01:34 | 22.48053 | -68.43375 | 32052 ft | 489 kts | 345° |
| 2026-04-29 01:34 | 22.54649 | -68.45232 | 32032 ft | 489 kts | 345° |
| 2026-04-29 01:35 | 22.61226 | -68.47085 | 32019 ft | 489 kts | 345° |
| 2026-04-29 01:35 | 22.67739 | -68.48922 | 32014 ft | 489 kts | 345° |
| 2026-04-29 01:36 | 22.74387 | -68.50799 | 31999 ft | 489 kts | 345° |
| 2026-04-29 01:36 | 22.80925 | -68.52647 | 31998 ft | 489 kts | 345° |
| 2026-04-29 01:37 | 22.87516 | -68.54512 | 31994 ft | 489 kts | 345° |
| 2026-04-29 01:37 | 22.94098 | -68.56376 | 31994 ft | 489 kts | 345° |
| 2026-04-29 01:38 | 23.00690 | -68.58244 | 31994 ft | 489 kts | 345° |
| 2026-04-29 01:38 | 23.07257 | -68.60108 | 31994 ft | 489 kts | 345° |
| 2026-04-29 01:39 | 23.13813 | -68.61970 | 31994 ft | 489 kts | 345° |
| 2026-04-29 01:39 | 23.20394 | -68.63841 | 31994 ft | 489 kts | 345° |
| 2026-04-29 01:40 | 23.27011 | -68.65724 | 31994 ft | 489 kts | 345° |
| 2026-04-29 01:40 | 23.33545 | -68.67580 | 31994 ft | 489 kts | 345° |
| 2026-04-29 01:41 | 23.40140 | -68.69462 | 31994 ft | 489 kts | 345° |
| 2026-04-29 01:41 | 23.46719 | -68.71343 | 31994 ft | 489 kts | 345° |
| 2026-04-29 01:42 | 23.53272 | -68.73218 | 31994 ft | 489 kts | 345° |
| 2026-04-29 01:42 | 23.59843 | -68.75089 | 31994 ft | 489 kts | 346° |
| 2026-04-29 01:43 | 23.65411 | -68.76445 | 31994 ft | 489 kts | 348° |
| 2026-04-29 01:43 | 23.73142 | -68.78285 | 31994 ft | 489 kts | 347° |
| 2026-04-29 01:44 | 23.79760 | -68.79892 | 31994 ft | 489 kts | 347° |
| 2026-04-29 01:44 | 23.85326 | -68.81251 | 31994 ft | 489 kts | 347° |
| 2026-04-29 01:45 | 23.91930 | -68.82867 | 31994 ft | 489 kts | 347° |
| 2026-04-29 01:45 | 23.98568 | -68.84487 | 31994 ft | 489 kts | 347° |
| 2026-04-29 01:46 | 24.05189 | -68.86108 | 31994 ft | 489 kts | 347° |
| 2026-04-29 01:46 | 24.11827 | -68.87733 | 31994 ft | 489 kts | 347° |
| 2026-04-29 01:47 | 24.18473 | -68.89366 | 31994 ft | 489 kts | 347° |
| 2026-04-29 01:47 | 24.25113 | -68.91002 | 31994 ft | 489 kts | 347° |
| 2026-04-29 01:48 | 24.31763 | -68.92641 | 31994 ft | 489 kts | 347° |
| 2026-04-29 01:48 | 24.38357 | -68.94267 | 31994 ft | 489 kts | 347° |
| 2026-04-29 01:49 | 24.44995 | -68.95895 | 31994 ft | 489 kts | 347° |
| 2026-04-29 01:49 | 24.51631 | -68.97518 | 31994 ft | 489 kts | 347° |
| 2026-04-29 01:50 | 24.58302 | -68.99153 | 31994 ft | 489 kts | 347° |
| 2026-04-29 01:50 | 24.64902 | -69.00772 | 31999 ft | 489 kts | 347° |
| 2026-04-29 01:51 | 24.71550 | -69.02396 | 32000 ft | 489 kts | 347° |
| 2026-04-29 01:51 | 24.78193 | -69.04025 | 31994 ft | 489 kts | 347° |
| 2026-04-29 01:52 | 24.84834 | -69.05660 | 32009 ft | 489 kts | 347° |
| 2026-04-29 01:52 | 24.91477 | -69.07297 | 32016 ft | 489 kts | 347° |
| 2026-04-29 01:53 | 24.98083 | -69.08926 | 32019 ft | 489 kts | 347° |
| 2026-04-29 01:53 | 25.04771 | -69.10471 | 32029 ft | 489 kts | 349° |
| 2026-04-29 01:54 | 25.11399 | -69.11784 | 32037 ft | 489 kts | 349° |
| 2026-04-29 01:54 | 25.18110 | -69.13146 | 32050 ft | 489 kts | 349° |
| 2026-04-29 01:55 | 25.24798 | -69.14520 | 32053 ft | 489 kts | 349° |
| 2026-04-29 01:55 | 25.31486 | -69.15901 | 32053 ft | 489 kts | 349° |
| 2026-04-29 01:56 | 25.38173 | -69.17279 | 32053 ft | 489 kts | 349° |
| 2026-04-29 01:56 | 25.44822 | -69.18652 | 32053 ft | 489 kts | 349° |
| 2026-04-29 01:57 | 25.51549 | -69.20045 | 32053 ft | 489 kts | 349° |
| 2026-04-29 01:57 | 25.58198 | -69.21425 | 32053 ft | 489 kts | 349° |
| 2026-04-29 01:58 | 25.64883 | -69.22814 | 32053 ft | 489 kts | 349° |
| 2026-04-29 01:58 | 25.71571 | -69.24205 | 32053 ft | 489 kts | 349° |
| 2026-04-29 01:59 | 25.78266 | -69.25599 | 32053 ft | 489 kts | 349° |
| 2026-04-29 01:59 | 25.84910 | -69.26984 | 32053 ft | 489 kts | 349° |
| 2026-04-29 02:00 | 25.91599 | -69.28381 | 32053 ft | 489 kts | 349° |
| 2026-04-29 02:00 | 25.98297 | -69.29780 | 32053 ft | 489 kts | 349° |
| 2026-04-29 02:01 | 26.04982 | -69.31179 | 32053 ft | 489 kts | 349° |
| 2026-04-29 02:01 | 26.11639 | -69.32574 | 32053 ft | 489 kts | 349° |
| 2026-04-29 02:02 | 26.18336 | -69.33978 | 32053 ft | 489 kts | 349° |
| 2026-04-29 02:02 | 26.24975 | -69.35372 | 32053 ft | 488 kts | 349° |
| 2026-04-29 02:03 | 26.31647 | -69.36775 | 32053 ft | 487 kts | 349° |
| 2026-04-29 02:03 | 26.38329 | -69.38181 | 32062 ft | 487 kts | 349° |
| 2026-04-29 02:04 | 26.44974 | -69.39577 | 32080 ft | 487 kts | 349° |
| 2026-04-29 02:04 | 26.51633 | -69.40982 | 32088 ft | 487 kts | 349° |
| 2026-04-29 02:05 | 26.58309 | -69.42394 | 32103 ft | 487 kts | 349° |
| 2026-04-29 02:05 | 26.64967 | -69.43804 | 32114 ft | 487 kts | 349° |
| 2026-04-29 02:06 | 26.71640 | -69.45217 | 32122 ft | 487 kts | 349° |
| 2026-04-29 02:06 | 26.78314 | -69.46633 | 32136 ft | 487 kts | 349° |
| 2026-04-29 02:07 | 26.84940 | -69.48040 | 32138 ft | 487 kts | 349° |
| 2026-04-29 02:07 | 26.91612 | -69.49460 | 32139 ft | 487 kts | 349° |
| 2026-04-29 02:08 | 26.98276 | -69.50881 | 32142 ft | 487 kts | 349° |
| 2026-04-29 02:08 | 27.04930 | -69.52301 | 32138 ft | 487 kts | 349° |
| 2026-04-29 02:09 | 27.11606 | -69.53719 | 32130 ft | 487 kts | 349° |
| 2026-04-29 02:09 | 27.18222 | -69.55130 | 32121 ft | 487 kts | 349° |
| 2026-04-29 02:10 | 27.24895 | -69.56556 | 32117 ft | 487 kts | 349° |
| 2026-04-29 02:10 | 27.31566 | -69.57984 | 32112 ft | 487 kts | 349° |
| 2026-04-29 02:11 | 27.38205 | -69.59407 | 32111 ft | 486 kts | 349° |
| 2026-04-29 02:11 | 27.44829 | -69.60827 | 32116 ft | 485 kts | 349° |
| 2026-04-29 02:12 | 27.51476 | -69.62252 | 32130 ft | 485 kts | 349° |
| 2026-04-29 02:12 | 27.58076 | -69.63673 | 32125 ft | 485 kts | 349° |
| 2026-04-29 02:13 | 27.64731 | -69.65109 | 32115 ft | 485 kts | 349° |
| 2026-04-29 02:13 | 27.71368 | -69.66542 | 32106 ft | 485 kts | 349° |
| 2026-04-29 02:14 | 27.77966 | -69.67968 | 32097 ft | 485 kts | 349° |
| 2026-04-29 02:14 | 27.84640 | -69.69413 | 32085 ft | 485 kts | 349° |
| 2026-04-29 02:15 | 27.91233 | -69.70843 | 32075 ft | 485 kts | 349° |
| 2026-04-29 02:15 | 27.97875 | -69.72287 | 32066 ft | 485 kts | 349° |
| 2026-04-29 02:16 | 28.04532 | -69.73736 | 32064 ft | 485 kts | 349° |
| 2026-04-29 02:16 | 28.11168 | -69.75179 | 32057 ft | 485 kts | 349° |
| 2026-04-29 02:17 | 28.17768 | -69.76610 | 32062 ft | 485 kts | 349° |
| 2026-04-29 02:17 | 28.24407 | -69.78056 | 32057 ft | 485 kts | 349° |
| 2026-04-29 02:18 | 28.31044 | -69.79504 | 32051 ft | 485 kts | 349° |
| 2026-04-29 02:18 | 28.37688 | -69.80956 | 32060 ft | 485 kts | 349° |
| 2026-04-29 02:19 | 28.44280 | -69.82398 | 32053 ft | 485 kts | 349° |
| 2026-04-29 02:19 | 28.50934 | -69.83857 | 32045 ft | 485 kts | 349° |
| 2026-04-29 02:20 | 28.57540 | -69.85306 | 32053 ft | 483 kts | 349° |
| 2026-04-29 02:20 | 28.64115 | -69.86751 | 32053 ft | 483 kts | 349° |
| 2026-04-29 02:21 | 28.70722 | -69.88204 | 32056 ft | 483 kts | 349° |
| 2026-04-29 02:21 | 28.77347 | -69.89663 | 32054 ft | 483 kts | 349° |
| 2026-04-29 02:22 | 28.83926 | -69.91114 | 32052 ft | 483 kts | 349° |
| 2026-04-29 02:22 | 28.90540 | -69.92575 | 32049 ft | 483 kts | 349° |
| 2026-04-29 02:23 | 28.97147 | -69.94036 | 32043 ft | 483 kts | 349° |
| 2026-04-29 02:23 | 29.03720 | -69.95492 | 32032 ft | 483 kts | 349° |
| 2026-04-29 02:24 | 29.10324 | -69.96956 | 32029 ft | 483 kts | 349° |
| 2026-04-29 02:25 | 29.20240 | -69.99158 | 32020 ft | 483 kts | 349° |
| 2026-04-29 02:25 | 29.26854 | -70.00629 | 32011 ft | 483 kts | 349° |
| 2026-04-29 02:26 | 29.33458 | -70.02100 | 31999 ft | 483 kts | 349° |
| 2026-04-29 02:26 | 29.40029 | -70.03566 | 32003 ft | 483 kts | 349° |
| 2026-04-29 02:27 | 29.46634 | -70.05041 | 32004 ft | 483 kts | 349° |
| 2026-04-29 02:27 | 29.53253 | -70.06521 | 31992 ft | 483 kts | 349° |
| 2026-04-29 02:28 | 29.59839 | -70.07996 | 32010 ft | 483 kts | 349° |
| 2026-04-29 02:28 | 29.65332 | -70.09227 | 32025 ft | 483 kts | 349° |
| 2026-04-29 02:29 | 29.71914 | -70.10704 | 32009 ft | 480 kts | 349° |
| 2026-04-29 02:29 | 29.79543 | -70.12419 | 31992 ft | 480 kts | 349° |
| 2026-04-29 02:30 | 29.85033 | -70.13655 | 31988 ft | 480 kts | 349° |
| 2026-04-29 02:30 | 29.91610 | -70.15137 | 31976 ft | 480 kts | 349° |
| 2026-04-29 02:31 | 29.98135 | -70.16610 | 31966 ft | 480 kts | 349° |
| 2026-04-29 02:31 | 30.04694 | -70.18092 | 31964 ft | 480 kts | 349° |
| 2026-04-29 02:32 | 30.11262 | -70.19572 | 31968 ft | 480 kts | 349° |
| 2026-04-29 02:32 | 30.17829 | -70.21061 | 31964 ft | 480 kts | 349° |
| 2026-04-29 02:33 | 30.21075 | -70.21799 | 31961 ft | 480 kts | 349° |